Ana Sayfa
METAR-TAF:

METAR-TAF

Havaalanları :

Chugiak, Alaska, Amerika Birleşik Devletleri

Enlem: 61-25N, Boylam: 149-31W, yükseklik: 29 m

Güncel hava durumu gözlemi

Rapor saat 08:56 UTC de 51 dakika önce yapıldı.
Sakin rüzgar
Sıcaklık 11°C
Nem 76%
Basınç 1012 hPa
Görüş mesafesi: 16.1 km
4500 ft yükseklikte çok bulutlu
hafif yağmur

METAR: PABV 290856Z AUTO 00000KT 10SM -RA OVC045 11/07 A2989 RMK AO2 RAB30 SLP128 P0000 60000 T01110072 401440089 53011

Saat: 01:47 (09:47 UTC)


TAF: eksik

4.000'den fazla havaalanı için hava durumu gözlemleri ve tahminleri (METAR ve TAF raporları).

Kullanılabilir istasyonlar harita üzerinde sarı ve kırmızı noktalarla gösterilir.

İstasyonun adını görmek için fareyi noktanın üzerinde gezdirin.

Sonrasında hava gözlem ve tahminlerini görmek için tıklayın.

Haritayı değiştirmek için: yaklaştırmak için siyah artı işaretli yeşil düğmeye ve uzaklaştırmak için de eksi işaretli düğmeye hızla tıklayın; bitişik haritalar için yeşil okları kullanın.


METAR-TAF: